sensor_id;sensor_type;location;lat;lon;timestamp;P1;durP1;ratioP1;P2;durP2;ratioP2
66628;SDS011;53532;53.084;6.352;2022-09-09T00:02:02;20.67;;;10.80;;
66628;SDS011;53532;53.084;6.352;2022-09-09T00:04:30;15.32;;;9.90;;
66628;SDS011;53532;53.084;6.352;2022-09-09T00:07:01;16.48;;;10.27;;
66628;SDS011;53532;53.084;6.352;2022-09-09T00:11:58;17.40;;;10.32;;
66628;SDS011;53532;53.084;6.352;2022-09-09T00:14:31;15.10;;;10.15;;
66628;SDS011;53532;53.084;6.352;2022-09-09T00:17:00;17.38;;;10.15;;
66628;SDS011;53532;53.084;6.352;2022-09-09T00:19:30;17.13;;;10.63;;
66628;SDS011;53532;53.084;6.352;2022-09-09T00:22:06;17.45;;;10.82;;
66628;SDS011;53532;53.084;6.352;2022-09-09T00:24:37;18.75;;;11.45;;
66628;SDS011;53532;53.084;6.352;2022-09-09T00:27:06;16.15;;;10.70;;
66628;SDS011;53532;53.084;6.352;2022-09-09T00:29:35;19.15;;;11.52;;
66628;SDS011;53532;53.084;6.352;2022-09-09T00:32:09;18.80;;;11.77;;
66628;SDS011;53532;53.084;6.352;2022-09-09T00:34:37;16.52;;;11.38;;
66628;SDS011;53532;53.084;6.352;2022-09-09T00:37:08;17.77;;;11.32;;
66628;SDS011;53532;53.084;6.352;2022-09-09T00:39:36;17.13;;;10.90;;
66628;SDS011;53532;53.084;6.352;2022-09-09T00:42:08;15.98;;;11.30;;
66628;SDS011;53532;53.084;6.352;2022-09-09T00:44:38;17.55;;;11.52;;
66628;SDS011;53532;53.084;6.352;2022-09-09T00:47:08;18.98;;;11.68;;
66628;SDS011;53532;53.084;6.352;2022-09-09T00:49:39;16.23;;;11.13;;
66628;SDS011;53532;53.084;6.352;2022-09-09T00:52:13;17.70;;;10.82;;
66628;SDS011;53532;53.084;6.352;2022-09-09T00:54:45;16.85;;;11.15;;
66628;SDS011;53532;53.084;6.352;2022-09-09T00:57:17;16.75;;;10.80;;
66628;SDS011;53532;53.084;6.352;2022-09-09T00:59:50;14.95;;;10.70;;
66628;SDS011;53532;53.084;6.352;2022-09-09T01:02:21;19.33;;;11.10;;
66628;SDS011;53532;53.084;6.352;2022-09-09T01:04:53;16.00;;;10.05;;
66628;SDS011;53532;53.084;6.352;2022-09-09T01:07:20;16.38;;;10.50;;
66628;SDS011;53532;53.084;6.352;2022-09-09T01:09:50;13.60;;;10.38;;
66628;SDS011;53532;53.084;6.352;2022-09-09T01:12:23;18.33;;;10.52;;
66628;SDS011;53532;53.084;6.352;2022-09-09T01:14:50;16.83;;;10.57;;
66628;SDS011;53532;53.084;6.352;2022-09-09T01:17:19;18.83;;;10.90;;
66628;SDS011;53532;53.084;6.352;2022-09-09T01:19:50;14.55;;;10.52;;
66628;SDS011;53532;53.084;6.352;2022-09-09T01:22:21;17.25;;;10.68;;
66628;SDS011;53532;53.084;6.352;2022-09-09T01:25:01;20.50;;;11.18;;
66628;SDS011;53532;53.084;6.352;2022-09-09T01:27:32;18.02;;;10.68;;
66628;SDS011;53532;53.084;6.352;2022-09-09T01:29:59;13.65;;;10.15;;
66628;SDS011;53532;53.084;6.352;2022-09-09T01:35:10;14.70;;;10.57;;
66628;SDS011;53532;53.084;6.352;2022-09-09T01:37:38;16.73;;;11.35;;
66628;SDS011;53532;53.084;6.352;2022-09-09T01:40:04;15.63;;;10.80;;
66628;SDS011;53532;53.084;6.352;2022-09-09T01:42:30;17.95;;;10.45;;
66628;SDS011;53532;53.084;6.352;2022-09-09T01:44:58;16.35;;;11.13;;
66628;SDS011;53532;53.084;6.352;2022-09-09T01:47:24;18.90;;;10.90;;
66628;SDS011;53532;53.084;6.352;2022-09-09T01:49:50;17.88;;;11.15;;
66628;SDS011;53532;53.084;6.352;2022-09-09T01:52:16;19.15;;;11.57;;
66628;SDS011;53532;53.084;6.352;2022-09-09T01:54:43;16.23;;;11.00;;
66628;SDS011;53532;53.084;6.352;2022-09-09T01:57:11;20.55;;;12.18;;
66628;SDS011;53532;53.084;6.352;2022-09-09T01:59:42;21.25;;;12.05;;
66628;SDS011;53532;53.084;6.352;2022-09-09T02:02:13;18.30;;;11.90;;
66628;SDS011;53532;53.084;6.352;2022-09-09T02:04:43;17.95;;;12.25;;
66628;SDS011;53532;53.084;6.352;2022-09-09T02:07:14;20.75;;;12.45;;
66628;SDS011;53532;53.084;6.352;2022-09-09T02:09:41;21.13;;;12.80;;
66628;SDS011;53532;53.084;6.352;2022-09-09T02:12:09;20.35;;;12.70;;
66628;SDS011;53532;53.084;6.352;2022-09-09T02:14:38;20.25;;;12.77;;
66628;SDS011;53532;53.084;6.352;2022-09-09T02:17:07;23.40;;;12.80;;
66628;SDS011;53532;53.084;6.352;2022-09-09T02:19:36;19.27;;;13.15;;
66628;SDS011;53532;53.084;6.352;2022-09-09T02:22:03;20.92;;;13.40;;
66628;SDS011;53532;53.084;6.352;2022-09-09T02:24:30;21.27;;;13.38;;
66628;SDS011;53532;53.084;6.352;2022-09-09T02:26:58;22.05;;;12.70;;
66628;SDS011;53532;53.084;6.352;2022-09-09T02:29:26;21.73;;;13.35;;
66628;SDS011;53532;53.084;6.352;2022-09-09T02:31:53;23.42;;;13.30;;
66628;SDS011;53532;53.084;6.352;2022-09-09T02:34:21;24.08;;;13.48;;
66628;SDS011;53532;53.084;6.352;2022-09-09T02:36:50;22.92;;;13.65;;
66628;SDS011;53532;53.084;6.352;2022-09-09T02:39:19;21.48;;;12.88;;
66628;SDS011;53532;53.084;6.352;2022-09-09T02:41:45;20.73;;;13.68;;
66628;SDS011;53532;53.084;6.352;2022-09-09T02:44:13;20.95;;;12.68;;
66628;SDS011;53532;53.084;6.352;2022-09-09T02:46:49;21.00;;;12.85;;
66628;SDS011;53532;53.084;6.352;2022-09-09T02:49:22;20.80;;;12.73;;
66628;SDS011;53532;53.084;6.352;2022-09-09T02:51:53;21.60;;;13.07;;
66628;SDS011;53532;53.084;6.352;2022-09-09T02:54:27;22.33;;;12.73;;
66628;SDS011;53532;53.084;6.352;2022-09-09T02:57:01;20.25;;;12.25;;
66628;SDS011;53532;53.084;6.352;2022-09-09T02:59:28;19.85;;;12.65;;
66628;SDS011;53532;53.084;6.352;2022-09-09T03:01:55;24.17;;;12.95;;
66628;SDS011;53532;53.084;6.352;2022-09-09T03:04:21;23.88;;;12.95;;
66628;SDS011;53532;53.084;6.352;2022-09-09T03:06:49;23.25;;;12.85;;
66628;SDS011;53532;53.084;6.352;2022-09-09T03:09:17;21.98;;;12.60;;
66628;SDS011;53532;53.084;6.352;2022-09-09T03:11:43;21.17;;;11.75;;
66628;SDS011;53532;53.084;6.352;2022-09-09T03:14:09;23.98;;;12.15;;
66628;SDS011;53532;53.084;6.352;2022-09-09T03:16:36;20.15;;;12.05;;
66628;SDS011;53532;53.084;6.352;2022-09-09T03:19:02;21.13;;;11.98;;
66628;SDS011;53532;53.084;6.352;2022-09-09T03:21:28;19.63;;;10.95;;
66628;SDS011;53532;53.084;6.352;2022-09-09T03:23:54;18.80;;;11.20;;
66628;SDS011;53532;53.084;6.352;2022-09-09T03:26:23;19.73;;;11.30;;
66628;SDS011;53532;53.084;6.352;2022-09-09T03:28:49;19.83;;;11.20;;
66628;SDS011;53532;53.084;6.352;2022-09-09T03:31:17;18.08;;;10.98;;
66628;SDS011;53532;53.084;6.352;2022-09-09T03:33:44;22.10;;;11.35;;
66628;SDS011;53532;53.084;6.352;2022-09-09T03:36:10;16.48;;;10.18;;
66628;SDS011;53532;53.084;6.352;2022-09-09T03:38:37;17.48;;;10.85;;
66628;SDS011;53532;53.084;6.352;2022-09-09T03:41:03;19.63;;;10.50;;
66628;SDS011;53532;53.084;6.352;2022-09-09T03:43:34;18.67;;;10.63;;
66628;SDS011;53532;53.084;6.352;2022-09-09T03:46:01;17.05;;;10.10;;
66628;SDS011;53532;53.084;6.352;2022-09-09T03:48:27;15.60;;;9.75;;
66628;SDS011;53532;53.084;6.352;2022-09-09T03:50:53;16.30;;;9.07;;
66628;SDS011;53532;53.084;6.352;2022-09-09T03:55:52;15.38;;;9.02;;
66628;SDS011;53532;53.084;6.352;2022-09-09T03:58:20;15.48;;;8.30;;
66628;SDS011;53532;53.084;6.352;2022-09-09T04:00:53;17.05;;;8.77;;
66628;SDS011;53532;53.084;6.352;2022-09-09T04:03:19;15.30;;;8.25;;
66628;SDS011;53532;53.084;6.352;2022-09-09T04:05:48;16.80;;;8.18;;
66628;SDS011;53532;53.084;6.352;2022-09-09T04:08:14;16.10;;;8.23;;
66628;SDS011;53532;53.084;6.352;2022-09-09T04:10:40;13.48;;;8.15;;
66628;SDS011;53532;53.084;6.352;2022-09-09T04:13:07;13.88;;;8.48;;
66628;SDS011;53532;53.084;6.352;2022-09-09T04:15:33;14.23;;;8.00;;
66628;SDS011;53532;53.084;6.352;2022-09-09T04:18:01;14.35;;;8.65;;
66628;SDS011;53532;53.084;6.352;2022-09-09T04:20:27;18.42;;;9.20;;
66628;SDS011;53532;53.084;6.352;2022-09-09T04:22:54;17.30;;;9.70;;
66628;SDS011;53532;53.084;6.352;2022-09-09T04:25:20;18.35;;;9.38;;
66628;SDS011;53532;53.084;6.352;2022-09-09T04:27:46;16.35;;;9.10;;
66628;SDS011;53532;53.084;6.352;2022-09-09T04:30:13;16.13;;;8.68;;
66628;SDS011;53532;53.084;6.352;2022-09-09T04:32:39;18.08;;;9.57;;
66628;SDS011;53532;53.084;6.352;2022-09-09T04:35:07;15.90;;;9.50;;
66628;SDS011;53532;53.084;6.352;2022-09-09T04:37:33;18.33;;;9.57;;
66628;SDS011;53532;53.084;6.352;2022-09-09T04:39:59;15.57;;;9.45;;
66628;SDS011;53532;53.084;6.352;2022-09-09T04:42:27;18.27;;;9.45;;
66628;SDS011;53532;53.084;6.352;2022-09-09T04:44:53;17.95;;;9.93;;
66628;SDS011;53532;53.084;6.352;2022-09-09T04:47:19;17.38;;;10.05;;
66628;SDS011;53532;53.084;6.352;2022-09-09T04:49:46;15.52;;;9.25;;
66628;SDS011;53532;53.084;6.352;2022-09-09T04:52:13;16.05;;;9.95;;
66628;SDS011;53532;53.084;6.352;2022-09-09T04:54:42;18.08;;;9.75;;
66628;SDS011;53532;53.084;6.352;2022-09-09T04:57:10;17.15;;;10.40;;
66628;SDS011;53532;53.084;6.352;2022-09-09T04:59:36;18.02;;;10.45;;
66628;SDS011;53532;53.084;6.352;2022-09-09T05:02:02;17.50;;;10.63;;
66628;SDS011;53532;53.084;6.352;2022-09-09T05:04:29;18.02;;;10.55;;
66628;SDS011;53532;53.084;6.352;2022-09-09T05:06:55;20.25;;;10.65;;
66628;SDS011;53532;53.084;6.352;2022-09-09T05:09:23;17.00;;;10.25;;
66628;SDS011;53532;53.084;6.352;2022-09-09T05:11:49;16.15;;;10.23;;
66628;SDS011;53532;53.084;6.352;2022-09-09T05:14:15;18.30;;;10.38;;
66628;SDS011;53532;53.084;6.352;2022-09-09T05:16:42;19.52;;;10.90;;
66628;SDS011;53532;53.084;6.352;2022-09-09T05:19:09;20.13;;;10.95;;
66628;SDS011;53532;53.084;6.352;2022-09-09T05:21:35;18.48;;;10.90;;
66628;SDS011;53532;53.084;6.352;2022-09-09T05:24:02;18.23;;;11.23;;
66628;SDS011;53532;53.084;6.352;2022-09-09T05:26:29;20.92;;;11.43;;
66628;SDS011;53532;53.084;6.352;2022-09-09T05:28:56;22.02;;;11.65;;
66628;SDS011;53532;53.084;6.352;2022-09-09T05:31:24;18.45;;;11.18;;
66628;SDS011;53532;53.084;6.352;2022-09-09T05:33:52;19.52;;;10.75;;
66628;SDS011;53532;53.084;6.352;2022-09-09T05:36:19;22.52;;;11.05;;
66628;SDS011;53532;53.084;6.352;2022-09-09T05:38:45;19.73;;;11.07;;
66628;SDS011;53532;53.084;6.352;2022-09-09T05:41:12;21.70;;;12.65;;
66628;SDS011;53532;53.084;6.352;2022-09-09T05:43:42;18.10;;;11.32;;
66628;SDS011;53532;53.084;6.352;2022-09-09T05:46:10;20.92;;;11.90;;
66628;SDS011;53532;53.084;6.352;2022-09-09T05:48:36;21.17;;;11.68;;
66628;SDS011;53532;53.084;6.352;2022-09-09T05:51:03;21.60;;;12.10;;
66628;SDS011;53532;53.084;6.352;2022-09-09T05:53:30;20.27;;;13.05;;
66628;SDS011;53532;53.084;6.352;2022-09-09T05:56:00;22.35;;;11.93;;
66628;SDS011;53532;53.084;6.352;2022-09-09T05:58:28;21.50;;;12.98;;
66628;SDS011;53532;53.084;6.352;2022-09-09T06:01:01;19.25;;;12.38;;
66628;SDS011;53532;53.084;6.352;2022-09-09T06:03:27;21.88;;;12.55;;
66628;SDS011;53532;53.084;6.352;2022-09-09T06:05:56;19.58;;;11.60;;
66628;SDS011;53532;53.084;6.352;2022-09-09T06:08:23;20.02;;;11.77;;
66628;SDS011;53532;53.084;6.352;2022-09-09T06:10:49;17.83;;;11.43;;
66628;SDS011;53532;53.084;6.352;2022-09-09T06:13:17;20.58;;;11.70;;
66628;SDS011;53532;53.084;6.352;2022-09-09T06:15:48;18.33;;;11.02;;
66628;SDS011;53532;53.084;6.352;2022-09-09T06:18:16;22.00;;;11.43;;
66628;SDS011;53532;53.084;6.352;2022-09-09T06:20:52;17.63;;;11.10;;
66628;SDS011;53532;53.084;6.352;2022-09-09T06:23:19;16.80;;;10.52;;
66628;SDS011;53532;53.084;6.352;2022-09-09T06:25:45;16.80;;;10.05;;
66628;SDS011;53532;53.084;6.352;2022-09-09T06:28:11;16.20;;;10.63;;
66628;SDS011;53532;53.084;6.352;2022-09-09T06:30:37;17.45;;;10.43;;
66628;SDS011;53532;53.084;6.352;2022-09-09T06:33:03;17.52;;;10.07;;
66628;SDS011;53532;53.084;6.352;2022-09-09T06:35:30;17.85;;;10.35;;
66628;SDS011;53532;53.084;6.352;2022-09-09T06:37:56;16.35;;;9.73;;
66628;SDS011;53532;53.084;6.352;2022-09-09T06:40:23;15.98;;;9.82;;
66628;SDS011;53532;53.084;6.352;2022-09-09T06:42:49;16.33;;;10.38;;
66628;SDS011;53532;53.084;6.352;2022-09-09T06:45:15;14.73;;;10.38;;
66628;SDS011;53532;53.084;6.352;2022-09-09T06:47:41;17.95;;;10.55;;
66628;SDS011;53532;53.084;6.352;2022-09-09T06:50:08;18.40;;;10.68;;
66628;SDS011;53532;53.084;6.352;2022-09-09T06:52:37;16.75;;;10.32;;
66628;SDS011;53532;53.084;6.352;2022-09-09T06:55:03;15.43;;;10.40;;
66628;SDS011;53532;53.084;6.352;2022-09-09T06:57:30;15.90;;;9.43;;
66628;SDS011;53532;53.084;6.352;2022-09-09T06:59:55;14.52;;;10.00;;
66628;SDS011;53532;53.084;6.352;2022-09-09T07:02:21;14.30;;;9.40;;
66628;SDS011;53532;53.084;6.352;2022-09-09T07:04:47;16.20;;;10.25;;
66628;SDS011;53532;53.084;6.352;2022-09-09T07:07:15;16.17;;;9.70;;
66628;SDS011;53532;53.084;6.352;2022-09-09T07:09:42;14.85;;;9.55;;
66628;SDS011;53532;53.084;6.352;2022-09-09T07:12:08;13.70;;;9.30;;
66628;SDS011;53532;53.084;6.352;2022-09-09T07:14:33;14.20;;;9.15;;
66628;SDS011;53532;53.084;6.352;2022-09-09T07:17:02;13.70;;;9.25;;
66628;SDS011;53532;53.084;6.352;2022-09-09T07:19:28;17.83;;;9.15;;
66628;SDS011;53532;53.084;6.352;2022-09-09T07:21:53;16.75;;;9.02;;
66628;SDS011;53532;53.084;6.352;2022-09-09T07:24:19;13.52;;;9.02;;
66628;SDS011;53532;53.084;6.352;2022-09-09T07:26:46;14.32;;;8.50;;
66628;SDS011;53532;53.084;6.352;2022-09-09T07:29:12;14.15;;;8.90;;
66628;SDS011;53532;53.084;6.352;2022-09-09T07:31:39;15.02;;;9.15;;
66628;SDS011;53532;53.084;6.352;2022-09-09T07:34:05;13.70;;;9.00;;
66628;SDS011;53532;53.084;6.352;2022-09-09T07:36:32;13.10;;;8.23;;
66628;SDS011;53532;53.084;6.352;2022-09-09T07:39:00;12.98;;;8.23;;
66628;SDS011;53532;53.084;6.352;2022-09-09T07:41:28;14.57;;;9.07;;
66628;SDS011;53532;53.084;6.352;2022-09-09T07:43:56;12.50;;;7.90;;
66628;SDS011;53532;53.084;6.352;2022-09-09T07:46:24;15.10;;;8.30;;
66628;SDS011;53532;53.084;6.352;2022-09-09T07:48:51;12.48;;;8.02;;
66628;SDS011;53532;53.084;6.352;2022-09-09T07:51:19;15.70;;;8.02;;
66628;SDS011;53532;53.084;6.352;2022-09-09T07:53:47;13.20;;;8.10;;
66628;SDS011;53532;53.084;6.352;2022-09-09T07:56:17;14.07;;;8.20;;
66628;SDS011;53532;53.084;6.352;2022-09-09T07:58:44;12.70;;;7.80;;
66628;SDS011;53532;53.084;6.352;2022-09-09T08:01:13;14.82;;;7.63;;
66628;SDS011;53532;53.084;6.352;2022-09-09T08:03:42;13.95;;;7.78;;
66628;SDS011;53532;53.084;6.352;2022-09-09T08:06:09;14.90;;;7.70;;
66628;SDS011;53532;53.084;6.352;2022-09-09T08:08:35;13.63;;;7.13;;
66628;SDS011;53532;53.084;6.352;2022-09-09T08:11:03;11.55;;;7.22;;
66628;SDS011;53532;53.084;6.352;2022-09-09T08:13:31;11.95;;;7.10;;
66628;SDS011;53532;53.084;6.352;2022-09-09T08:16:03;13.88;;;7.53;;
66628;SDS011;53532;53.084;6.352;2022-09-09T08:18:32;14.20;;;7.90;;
66628;SDS011;53532;53.084;6.352;2022-09-09T08:20:58;12.07;;;7.10;;
66628;SDS011;53532;53.084;6.352;2022-09-09T08:23:29;12.18;;;7.20;;
66628;SDS011;53532;53.084;6.352;2022-09-09T08:26:02;12.25;;;7.05;;
66628;SDS011;53532;53.084;6.352;2022-09-09T08:28:29;12.80;;;6.65;;
66628;SDS011;53532;53.084;6.352;2022-09-09T08:30:56;12.93;;;6.75;;
66628;SDS011;53532;53.084;6.352;2022-09-09T08:33:29;11.63;;;6.35;;
66628;SDS011;53532;53.084;6.352;2022-09-09T08:35:56;13.20;;;6.28;;
66628;SDS011;53532;53.084;6.352;2022-09-09T08:38:22;11.50;;;6.22;;
66628;SDS011;53532;53.084;6.352;2022-09-09T08:40:47;14.45;;;6.65;;
66628;SDS011;53532;53.084;6.352;2022-09-09T08:43:16;12.20;;;6.63;;
66628;SDS011;53532;53.084;6.352;2022-09-09T08:45:47;12.27;;;6.80;;
66628;SDS011;53532;53.084;6.352;2022-09-09T08:48:19;12.70;;;6.75;;
66628;SDS011;53532;53.084;6.352;2022-09-09T08:50:49;12.20;;;6.65;;
66628;SDS011;53532;53.084;6.352;2022-09-09T08:53:19;11.82;;;6.80;;
66628;SDS011;53532;53.084;6.352;2022-09-09T08:55:47;11.70;;;6.38;;
66628;SDS011;53532;53.084;6.352;2022-09-09T08:58:14;14.07;;;6.15;;
66628;SDS011;53532;53.084;6.352;2022-09-09T09:00:44;9.63;;;5.43;;
66628;SDS011;53532;53.084;6.352;2022-09-09T09:03:14;10.98;;;5.80;;
66628;SDS011;53532;53.084;6.352;2022-09-09T09:05:44;16.38;;;5.75;;
66628;SDS011;53532;53.084;6.352;2022-09-09T09:08:12;14.48;;;5.57;;
66628;SDS011;53532;53.084;6.352;2022-09-09T09:10:46;10.18;;;5.28;;
66628;SDS011;53532;53.084;6.352;2022-09-09T09:13:17;11.07;;;5.30;;
66628;SDS011;53532;53.084;6.352;2022-09-09T09:15:46;11.98;;;5.68;;
66628;SDS011;53532;53.084;6.352;2022-09-09T09:18:14;9.68;;;4.70;;
66628;SDS011;53532;53.084;6.352;2022-09-09T09:20:44;11.73;;;4.68;;
66628;SDS011;53532;53.084;6.352;2022-09-09T09:23:12;11.27;;;4.90;;
66628;SDS011;53532;53.084;6.352;2022-09-09T09:28:12;9.77;;;4.35;;
66628;SDS011;53532;53.084;6.352;2022-09-09T09:30:42;11.48;;;4.50;;
66628;SDS011;53532;53.084;6.352;2022-09-09T09:33:11;10.30;;;3.83;;
66628;SDS011;53532;53.084;6.352;2022-09-09T09:35:41;13.65;;;4.28;;
66628;SDS011;53532;53.084;6.352;2022-09-09T09:38:10;13.45;;;4.70;;
66628;SDS011;53532;53.084;6.352;2022-09-09T09:40:47;11.07;;;4.55;;
66628;SDS011;53532;53.084;6.352;2022-09-09T09:43:18;10.85;;;4.30;;
66628;SDS011;53532;53.084;6.352;2022-09-09T09:45:45;12.38;;;4.35;;
66628;SDS011;53532;53.084;6.352;2022-09-09T09:48:12;14.90;;;4.05;;
66628;SDS011;53532;53.084;6.352;2022-09-09T09:50:45;11.75;;;4.32;;
66628;SDS011;53532;53.084;6.352;2022-09-09T09:53:17;10.98;;;3.97;;
66628;SDS011;53532;53.084;6.352;2022-09-09T09:55:46;12.32;;;4.00;;
66628;SDS011;53532;53.084;6.352;2022-09-09T09:58:15;11.93;;;3.78;;
66628;SDS011;53532;53.084;6.352;2022-09-09T10:00:48;10.48;;;3.72;;
66628;SDS011;53532;53.084;6.352;2022-09-09T10:03:21;10.43;;;4.35;;
66628;SDS011;53532;53.084;6.352;2022-09-09T10:05:47;12.38;;;3.60;;
66628;SDS011;53532;53.084;6.352;2022-09-09T10:08:14;9.95;;;4.00;;
66628;SDS011;53532;53.084;6.352;2022-09-09T10:10:51;10.02;;;4.28;;
66628;SDS011;53532;53.084;6.352;2022-09-09T10:13:22;12.88;;;3.92;;
66628;SDS011;53532;53.084;6.352;2022-09-09T10:15:56;12.52;;;4.10;;
66628;SDS011;53532;53.084;6.352;2022-09-09T10:18:31;10.20;;;3.78;;
66628;SDS011;53532;53.084;6.352;2022-09-09T10:21:02;9.80;;;3.60;;
66628;SDS011;53532;53.084;6.352;2022-09-09T10:23:35;12.95;;;3.60;;
66628;SDS011;53532;53.084;6.352;2022-09-09T10:26:11;10.98;;;3.50;;
66628;SDS011;53532;53.084;6.352;2022-09-09T10:31:24;12.52;;;3.38;;
66628;SDS011;53532;53.084;6.352;2022-09-09T10:36:20;11.18;;;3.25;;
66628;SDS011;53532;53.084;6.352;2022-09-09T10:38:48;9.10;;;2.88;;
66628;SDS011;53532;53.084;6.352;2022-09-09T10:41:19;9.88;;;3.05;;
66628;SDS011;53532;53.084;6.352;2022-09-09T10:43:49;13.20;;;3.42;;
66628;SDS011;53532;53.084;6.352;2022-09-09T10:46:19;10.60;;;2.95;;
66628;SDS011;53532;53.084;6.352;2022-09-09T10:48:53;10.13;;;2.78;;
66628;SDS011;53532;53.084;6.352;2022-09-09T10:51:23;7.22;;;2.80;;
66628;SDS011;53532;53.084;6.352;2022-09-09T10:53:53;7.68;;;2.60;;
66628;SDS011;53532;53.084;6.352;2022-09-09T10:56:22;8.30;;;2.60;;
66628;SDS011;53532;53.084;6.352;2022-09-09T10:58:50;8.25;;;2.80;;
66628;SDS011;53532;53.084;6.352;2022-09-09T11:01:18;8.32;;;2.75;;
66628;SDS011;53532;53.084;6.352;2022-09-09T11:03:47;10.13;;;2.65;;
66628;SDS011;53532;53.084;6.352;2022-09-09T11:06:17;9.30;;;2.53;;
66628;SDS011;53532;53.084;6.352;2022-09-09T11:08:45;10.07;;;2.60;;
66628;SDS011;53532;53.084;6.352;2022-09-09T11:11:13;9.95;;;3.00;;
66628;SDS011;53532;53.084;6.352;2022-09-09T11:13:44;7.78;;;2.47;;
66628;SDS011;53532;53.084;6.352;2022-09-09T11:16:16;8.98;;;2.40;;
66628;SDS011;53532;53.084;6.352;2022-09-09T11:18:45;8.20;;;2.45;;
66628;SDS011;53532;53.084;6.352;2022-09-09T11:21:14;7.78;;;2.28;;
66628;SDS011;53532;53.084;6.352;2022-09-09T11:23:47;8.38;;;2.42;;
66628;SDS011;53532;53.084;6.352;2022-09-09T11:26:16;8.30;;;2.33;;
66628;SDS011;53532;53.084;6.352;2022-09-09T11:28:46;9.73;;;2.28;;
66628;SDS011;53532;53.084;6.352;2022-09-09T11:31:21;9.32;;;2.60;;
66628;SDS011;53532;53.084;6.352;2022-09-09T11:34:01;10.10;;;2.58;;
66628;SDS011;53532;53.084;6.352;2022-09-09T11:39:33;8.93;;;2.83;;
66628;SDS011;53532;53.084;6.352;2022-09-09T11:42:05;10.82;;;2.47;;
66628;SDS011;53532;53.084;6.352;2022-09-09T11:44:32;8.45;;;2.40;;
66628;SDS011;53532;53.084;6.352;2022-09-09T11:46:58;8.75;;;2.90;;
66628;SDS011;53532;53.084;6.352;2022-09-09T11:49:27;7.95;;;2.20;;
66628;SDS011;53532;53.084;6.352;2022-09-09T11:51:54;10.73;;;2.63;;
66628;SDS011;53532;53.084;6.352;2022-09-09T11:54:31;7.47;;;2.20;;
66628;SDS011;53532;53.084;6.352;2022-09-09T11:56:57;7.40;;;2.28;;
66628;SDS011;53532;53.084;6.352;2022-09-09T11:59:24;8.05;;;2.10;;
66628;SDS011;53532;53.084;6.352;2022-09-09T12:01:53;10.07;;;2.80;;
66628;SDS011;53532;53.084;6.352;2022-09-09T12:04:26;8.73;;;2.50;;
66628;SDS011;53532;53.084;6.352;2022-09-09T12:06:54;9.38;;;2.67;;
66628;SDS011;53532;53.084;6.352;2022-09-09T12:09:23;9.48;;;2.45;;
66628;SDS011;53532;53.084;6.352;2022-09-09T12:11:52;9.27;;;2.40;;
66628;SDS011;53532;53.084;6.352;2022-09-09T12:14:19;9.40;;;2.88;;
66628;SDS011;53532;53.084;6.352;2022-09-09T12:16:46;7.70;;;3.20;;
66628;SDS011;53532;53.084;6.352;2022-09-09T12:19:14;11.13;;;3.38;;
66628;SDS011;53532;53.084;6.352;2022-09-09T12:21:42;8.75;;;2.90;;
66628;SDS011;53532;53.084;6.352;2022-09-09T12:24:11;9.82;;;2.90;;
66628;SDS011;53532;53.084;6.352;2022-09-09T12:26:39;9.07;;;2.15;;
66628;SDS011;53532;53.084;6.352;2022-09-09T12:29:14;11.27;;;2.55;;
66628;SDS011;53532;53.084;6.352;2022-09-09T12:31:43;8.65;;;2.58;;
66628;SDS011;53532;53.084;6.352;2022-09-09T12:34:11;7.70;;;2.42;;
66628;SDS011;53532;53.084;6.352;2022-09-09T12:36:37;8.30;;;2.40;;
66628;SDS011;53532;53.084;6.352;2022-09-09T12:39:09;9.15;;;2.42;;
66628;SDS011;53532;53.084;6.352;2022-09-09T12:41:36;8.40;;;2.53;;
66628;SDS011;53532;53.084;6.352;2022-09-09T12:44:03;6.80;;;2.33;;
66628;SDS011;53532;53.084;6.352;2022-09-09T12:46:32;8.60;;;2.40;;
66628;SDS011;53532;53.084;6.352;2022-09-09T12:49:01;9.18;;;2.30;;
66628;SDS011;53532;53.084;6.352;2022-09-09T12:51:28;8.05;;;2.17;;
66628;SDS011;53532;53.084;6.352;2022-09-09T12:53:55;5.88;;;1.92;;
66628;SDS011;53532;53.084;6.352;2022-09-09T12:56:22;9.05;;;2.33;;
66628;SDS011;53532;53.084;6.352;2022-09-09T12:58:51;8.70;;;2.10;;
66628;SDS011;53532;53.084;6.352;2022-09-09T13:01:20;7.15;;;1.88;;
66628;SDS011;53532;53.084;6.352;2022-09-09T13:03:48;7.15;;;2.03;;
66628;SDS011;53532;53.084;6.352;2022-09-09T13:06:18;6.75;;;1.90;;
66628;SDS011;53532;53.084;6.352;2022-09-09T13:08:45;8.57;;;2.35;;
66628;SDS011;53532;53.084;6.352;2022-09-09T13:11:13;8.15;;;2.10;;
66628;SDS011;53532;53.084;6.352;2022-09-09T13:13:41;8.18;;;2.20;;
66628;SDS011;53532;53.084;6.352;2022-09-09T13:16:18;7.45;;;2.00;;
66628;SDS011;53532;53.084;6.352;2022-09-09T13:18:45;8.23;;;2.25;;
66628;SDS011;53532;53.084;6.352;2022-09-09T13:21:13;7.05;;;2.03;;
66628;SDS011;53532;53.084;6.352;2022-09-09T13:23:39;7.78;;;2.15;;
66628;SDS011;53532;53.084;6.352;2022-09-09T13:26:06;11.95;;;2.13;;
66628;SDS011;53532;53.084;6.352;2022-09-09T13:28:45;20.10;;;3.33;;
66628;SDS011;53532;53.084;6.352;2022-09-09T13:31:19;15.52;;;3.10;;
66628;SDS011;53532;53.084;6.352;2022-09-09T13:33:45;10.63;;;2.50;;
66628;SDS011;53532;53.084;6.352;2022-09-09T13:36:13;5.47;;;1.77;;
66628;SDS011;53532;53.084;6.352;2022-09-09T13:38:40;6.00;;;1.73;;
66628;SDS011;53532;53.084;6.352;2022-09-09T13:41:19;5.95;;;2.10;;
66628;SDS011;53532;53.084;6.352;2022-09-09T13:43:46;6.35;;;1.90;;
66628;SDS011;53532;53.084;6.352;2022-09-09T13:46:24;7.30;;;2.05;;
66628;SDS011;53532;53.084;6.352;2022-09-09T13:48:54;6.32;;;1.80;;
66628;SDS011;53532;53.084;6.352;2022-09-09T13:51:28;6.32;;;2.17;;
66628;SDS011;53532;53.084;6.352;2022-09-09T13:53:55;7.05;;;2.03;;
66628;SDS011;53532;53.084;6.352;2022-09-09T13:56:22;6.28;;;1.73;;
66628;SDS011;53532;53.084;6.352;2022-09-09T13:58:50;6.82;;;1.73;;
66628;SDS011;53532;53.084;6.352;2022-09-09T14:01:16;7.93;;;1.90;;
66628;SDS011;53532;53.084;6.352;2022-09-09T14:03:42;6.28;;;1.80;;
66628;SDS011;53532;53.084;6.352;2022-09-09T14:06:08;6.82;;;1.55;;
66628;SDS011;53532;53.084;6.352;2022-09-09T14:08:36;5.10;;;1.40;;
66628;SDS011;53532;53.084;6.352;2022-09-09T14:11:03;4.22;;;1.48;;
66628;SDS011;53532;53.084;6.352;2022-09-09T14:13:29;5.63;;;1.70;;
66628;SDS011;53532;53.084;6.352;2022-09-09T14:15:56;7.78;;;2.28;;
66628;SDS011;53532;53.084;6.352;2022-09-09T14:18:22;13.15;;;3.35;;
66628;SDS011;53532;53.084;6.352;2022-09-09T14:20:50;18.05;;;3.35;;
66628;SDS011;53532;53.084;6.352;2022-09-09T14:23:16;8.57;;;2.80;;
66628;SDS011;53532;53.084;6.352;2022-09-09T14:25:45;8.05;;;2.65;;
66628;SDS011;53532;53.084;6.352;2022-09-09T14:28:12;9.05;;;2.58;;
66628;SDS011;53532;53.084;6.352;2022-09-09T14:30:38;6.70;;;2.78;;
66628;SDS011;53532;53.084;6.352;2022-09-09T14:33:05;7.72;;;2.97;;
66628;SDS011;53532;53.084;6.352;2022-09-09T14:35:31;6.70;;;2.50;;
66628;SDS011;53532;53.084;6.352;2022-09-09T14:37:58;7.45;;;2.45;;
66628;SDS011;53532;53.084;6.352;2022-09-09T14:40:26;6.80;;;2.72;;
66628;SDS011;53532;53.084;6.352;2022-09-09T14:42:53;9.20;;;2.72;;
66628;SDS011;53532;53.084;6.352;2022-09-09T14:45:21;5.68;;;2.17;;
66628;SDS011;53532;53.084;6.352;2022-09-09T14:47:49;5.60;;;2.20;;
66628;SDS011;53532;53.084;6.352;2022-09-09T14:50:15;8.27;;;2.65;;
66628;SDS011;53532;53.084;6.352;2022-09-09T14:52:41;6.07;;;2.13;;
66628;SDS011;53532;53.084;6.352;2022-09-09T14:55:07;5.93;;;1.98;;
66628;SDS011;53532;53.084;6.352;2022-09-09T14:57:34;5.75;;;2.17;;
66628;SDS011;53532;53.084;6.352;2022-09-09T15:00:02;4.45;;;1.63;;